Time;durP1;ratioP1;P1;durP2;ratioP2;P2;SDS_P1;SDS_P2;PMS_P1;PMS_P2;Temp;Humidity;BMP_temperature;BMP_pressure;BME280_temperature;BME280_humidity;BME280_pressure;Samples;Min_cycle;Max_cycle;Signal;HPM_P1;HPM_P2
2024/02/19 00:00:09;;;;;;;0.50;0.40;;;;;;;-2.07;55.68;100588.22;5050913;28;20433;-66
2024/02/19 00:02:35;;;;;;;1.75;0.35;;;;;;;-2.10;55.97;100586.47;5051053;28;20106;-66
2024/02/19 00:05:01;;;;;;;0.80;0.30;;;;;;;-2.11;55.86;100591.78;5050411;28;20044;-66
2024/02/19 00:07:26;;;;;;;0.52;0.35;;;;;;;-2.19;55.61;100587.50;5050879;28;20044;-66
2024/02/19 00:09:52;;;;;;;2.20;0.40;;;;;;;-2.17;55.89;100579.63;5051011;28;20021;-64
2024/02/19 00:12:17;;;;;;;1.05;0.50;;;;;;;-2.20;55.79;100583.13;5051667;28;20029;-66
2024/02/19 00:14:43;;;;;;;1.80;0.45;;;;;;;-2.12;55.78;100590.91;5050726;28;20055;-66
2024/02/19 00:17:08;;;;;;;1.00;0.50;;;;;;;-2.10;56.14;100598.75;5050633;28;20068;-66
2024/02/19 00:19:34;;;;;;;0.50;0.50;;;;;;;-2.40;56.04;100543.25;5050202;27;20029;-66
2024/02/19 00:22:00;;;;;;;1.33;0.65;;;;;;;-2.07;56.10;100612.66;5051346;28;20033;-65
2024/02/19 00:24:25;;;;;;;1.67;0.90;;;;;;;-2.00;56.57;100602.09;5050604;28;20103;-65
2024/02/19 00:26:51;;;;;;;1.60;0.93;;;;;;;-2.02;56.91;100589.88;5050519;28;20037;-65
2024/02/19 00:29:16;;;;;;;1.98;1.17;;;;;;;-1.97;57.06;100586.31;5050427;28;20093;-66
2024/02/19 00:31:43;;;;;;;1.73;0.93;;;;;;;-2.17;57.33;100549.00;5050668;28;20044;-66
2024/02/19 00:34:09;;;;;;;2.80;0.93;;;;;;;-1.84;56.99;100602.72;5050598;28;20092;-68
2024/02/19 00:36:34;;;;;;;2.22;1.00;;;;;;;-1.88;57.18;100604.50;5050409;28;20037;-67
2024/02/19 00:39:00;;;;;;;2.55;0.85;;;;;;;-1.90;57.18;100601.03;5050731;28;20037;-67
2024/02/19 00:41:26;;;;;;;1.67;1.00;;;;;;;-1.96;57.00;100602.00;5050323;28;20029;-65
2024/02/19 00:43:51;;;;;;;1.67;0.73;;;;;;;-2.07;57.32;100604.81;5050330;28;20037;-65
2024/02/19 00:46:17;;;;;;;0.95;0.80;;;;;;;-2.07;57.35;100606.56;5050339;28;20181;-69
2024/02/19 00:48:42;;;;;;;2.53;0.90;;;;;;;-2.13;57.35;100590.94;5050172;28;20819;-68
2024/02/19 00:51:08;;;;;;;0.88;0.75;;;;;;;-2.02;57.04;100610.88;5050418;28;20037;-67
2024/02/19 00:53:34;;;;;;;1.30;0.80;;;;;;;-2.02;57.48;100612.59;5050289;28;20495;-66
2024/02/19 00:55:59;;;;;;;0.60;0.60;;;;;;;-2.03;57.11;100622.25;5049470;28;20063;-65
2024/02/19 00:58:25;;;;;;;1.30;0.75;;;;;;;-2.05;57.28;100608.31;5050489;28;20044;-64
2024/02/19 01:00:51;;;;;;;0.98;0.70;;;;;;;-2.11;56.48;100623.25;5049871;28;20106;-64
2024/02/19 01:03:17;;;;;;;1.95;0.70;;;;;;;-2.14;57.21;100624.16;5049590;28;20024;-66
2024/02/19 01:05:42;;;;;;;1.42;0.70;;;;;;;-2.10;57.49;100631.09;5050031;28;20025;-66
2024/02/19 01:08:09;;;;;;;1.80;0.80;;;;;;;-2.18;56.82;100619.84;5050264;28;20458;-65
2024/02/19 01:10:35;;;;;;;1.40;0.85;;;;;;;-2.10;56.40;100630.25;5049909;28;20024;-66
2024/02/19 01:13:00;;;;;;;0.93;0.70;;;;;;;-2.10;56.90;100633.72;5049955;28;20060;-66
2024/02/19 01:15:26;;;;;;;1.15;0.98;;;;;;;-2.12;56.89;100637.28;5050089;28;20322;-66
2024/02/19 01:17:51;;;;;;;1.83;1.00;;;;;;;-2.11;56.53;100639.00;5050315;28;20465;-65
2024/02/19 01:20:17;;;;;;;2.08;0.95;;;;;;;-2.15;56.20;100629.44;5049334;27;20025;-66
2024/02/19 01:22:42;;;;;;;2.88;0.63;;;;;;;-2.13;56.63;100646.88;5049593;28;20037;-66
2024/02/19 01:25:08;;;;;;;1.40;0.70;;;;;;;-2.18;56.12;100643.47;5049563;28;20441;-66
2024/02/19 01:27:34;;;;;;;2.13;0.85;;;;;;;-2.24;55.79;100639.16;5049522;28;20041;-70
2024/02/19 01:30:00;;;;;;;0.50;0.40;;;;;;;-2.27;55.86;100631.34;5049484;28;20037;-66
2024/02/19 01:32:26;;;;;;;2.72;0.63;;;;;;;-2.29;55.93;100640.13;5049746;28;20032;-60
2024/02/19 01:34:52;;;;;;;2.20;0.70;;;;;;;-2.31;56.13;100643.63;5049272;28;20028;-66
2024/02/19 01:37:17;;;;;;;1.38;0.70;;;;;;;-2.30;56.16;100647.13;5047722;28;20033;-69
2024/02/19 01:39:43;;;;;;;2.50;0.80;;;;;;;-2.50;56.39;100606.31;5049619;28;20039;-67
2024/02/19 01:42:09;;;;;;;2.30;0.82;;;;;;;-2.20;55.29;100640.00;5049508;28;20021;-68
2024/02/19 01:44:36;;;;;;;3.78;1.50;;;;;;;-2.29;55.59;100661.09;5049040;28;20032;-67
2024/02/19 01:47:02;;;;;;;5.38;1.85;;;;;;;-2.31;56.14;100661.16;5048803;28;20116;-66
2024/02/19 01:49:28;;;;;;;1.92;0.80;;;;;;;-2.32;55.94;100662.88;5049227;28;20108;-66
2024/02/19 01:51:55;;;;;;;2.28;0.98;;;;;;;-2.41;56.29;100643.78;5049933;28;20049;-67
2024/02/19 01:54:22;;;;;;;3.08;0.82;;;;;;;-2.38;56.15;100657.72;5049329;28;20112;-67
2024/02/19 01:56:48;;;;;;;3.50;0.68;;;;;;;-2.35;56.53;100659.47;5049261;28;20341;-66
2024/02/19 01:59:16;;;;;;;0.73;0.60;;;;;;;-2.29;56.41;100674.22;5048888;28;20031;-68
2024/02/19 02:01:42;;;;;;;1.45;0.60;;;;;;;-2.28;56.67;100652.38;5049208;28;20440;-68
2024/02/19 02:04:11;;;;;;;1.98;0.75;;;;;;;-2.24;55.91;100652.28;5049193;28;20093;-67
2024/02/19 02:06:37;;;;;;;1.55;0.82;;;;;;;-2.23;55.94;100661.88;5049535;28;20112;-67
2024/02/19 02:09:03;;;;;;;1.45;0.55;;;;;;;-2.35;55.99;100651.59;5031887;28;20548;-68
2024/02/19 02:11:29;;;;;;;2.47;0.50;;;;;;;-2.38;55.59;100657.72;5049285;28;20437;-66
2024/02/19 02:13:55;;;;;;;1.17;0.50;;;;;;;-2.44;55.81;100660.44;5048421;28;20161;-65
2024/02/19 02:16:28;;;;;;;1.75;0.50;;;;;;;-2.37;55.65;100669.94;5048056;28;20441;-66
2024/02/19 02:18:54;;;;;;;1.17;0.43;;;;;;;-2.40;55.92;100674.41;5049065;28;20033;-67
2024/02/19 02:21:21;;;;;;;2.22;0.50;;;;;;;-2.42;56.24;100666.53;5048832;27;20513;-68
2024/02/19 02:23:48;;;;;;;1.85;0.57;;;;;;;-2.46;56.02;100664.84;5048491;28;20025;-67
2024/02/19 02:26:13;;;;;;;1.60;0.60;;;;;;;-2.79;56.32;100610.19;5048372;28;20441;-67
2024/02/19 02:28:39;;;;;;;2.25;0.98;;;;;;;-2.47;55.93;100663.97;5048353;28;20040;-67
2024/02/19 02:31:05;;;;;;;3.42;0.88;;;;;;;-2.42;56.62;100670.91;5048812;28;20360;-65
2024/02/19 02:33:30;;;;;;;2.15;0.70;;;;;;;-2.48;56.15;100656.13;5049267;28;20045;-67
2024/02/19 02:35:56;;;;;;;0.80;0.57;;;;;;;-2.49;55.44;100655.25;5049323;28;20033;-67
2024/02/19 02:38:21;;;;;;;2.45;0.60;;;;;;;-2.76;55.52;100612.78;5048255;28;20037;-67
2024/02/19 02:40:47;;;;;;;0.88;0.68;;;;;;;-2.42;55.78;100669.16;5048714;28;20029;-65
2024/02/19 02:43:12;;;;;;;1.63;0.50;;;;;;;-2.43;55.87;100674.41;5049002;28;20356;-67
2024/02/19 02:45:38;;;;;;;1.38;0.50;;;;;;;-2.47;56.28;100679.69;5048973;28;20033;-67
2024/02/19 02:48:04;;;;;;;5.05;0.63;;;;;;;-2.51;56.36;100672.75;5048064;28;20033;-63
2024/02/19 02:50:29;;;;;;;1.15;0.70;;;;;;;-2.48;56.50;100675.34;5052105;28;20171;-68
2024/02/19 02:52:55;;;;;;;0.73;0.60;;;;;;;-2.46;55.87;100675.34;5052569;28;20037;-67
2024/02/19 02:55:20;;;;;;;1.67;0.80;;;;;;;-2.42;55.33;100682.28;5052383;28;20041;-66
2024/02/19 02:57:46;;;;;;;2.85;0.82;;;;;;;-2.49;55.61;100678.84;5052292;28;20033;-69
2024/02/19 03:00:12;;;;;;;2.67;0.70;;;;;;;-2.52;55.26;100680.66;5052176;28;20032;-70
2024/02/19 03:02:38;;;;;;;1.35;0.60;;;;;;;-2.53;55.25;100677.16;5051843;28;20074;-70
2024/02/19 03:05:04;;;;;;;1.67;0.63;;;;;;;-2.52;55.61;100701.66;5052266;28;20037;-72
2024/02/19 03:07:30;;;;;;;0.88;0.40;;;;;;;-2.56;55.40;100713.91;5052342;28;20029;-70
2024/02/19 03:09:56;;;;;;;1.13;0.50;;;;;;;-2.56;55.04;100706.03;5051972;28;20048;-71
2024/02/19 03:12:21;;;;;;;0.82;0.47;;;;;;;-2.66;54.72;100693.91;5051397;28;20033;-67
2024/02/19 03:14:48;;;;;;;0.65;0.30;;;;;;;-2.59;54.63;100708.72;5051298;28;20352;-70
2024/02/19 03:17:13;;;;;;;1.13;0.40;;;;;;;-2.67;55.15;100715.78;5051539;28;20021;-69
2024/02/19 03:19:41;;;;;;;2.83;0.45;;;;;;;-2.84;55.20;100689.75;5051694;28;20036;-70
2024/02/19 03:22:07;;;;;;;2.97;0.50;;;;;;;-2.80;54.97;100726.41;5051855;28;20025;-68
2024/02/19 03:24:34;;;;;;;1.33;0.40;;;;;;;-2.86;55.10;100722.97;5051841;27;20028;-66
2024/02/19 03:27:01;;;;;;;2.58;0.40;;;;;;;-2.86;55.26;100710.75;5052495;28;20068;-69
2024/02/19 03:29:28;;;;;;;0.55;0.40;;;;;;;-2.94;55.57;100709.97;5051360;28;20033;-70
2024/02/19 03:31:54;;;;;;;0.50;0.30;;;;;;;-2.84;56.22;100723.84;5051730;28;20124;-69
2024/02/19 03:34:19;;;;;;;3.58;0.45;;;;;;;-2.79;55.89;100714.16;5051705;28;20120;-70
2024/02/19 03:36:48;;;;;;;0.70;0.60;;;;;;;-2.81;56.06;100708.94;5051203;28;20036;-65
2024/02/19 03:39:14;;;;;;;1.52;0.90;;;;;;;-2.68;56.38;100729.78;5051107;28;20025;-65
2024/02/19 03:41:39;;;;;;;2.92;1.27;;;;;;;-2.67;56.73;100728.88;5050314;28;20456;-68
2024/02/19 03:44:05;;;;;;;2.78;1.08;;;;;;;-2.78;56.64;100724.63;5051208;28;20037;-64
2024/02/19 03:46:30;;;;;;;1.38;0.90;;;;;;;-2.72;56.84;100738.56;5051840;28;20040;-68
2024/02/19 03:48:56;;;;;;;2.40;0.80;;;;;;;-2.82;56.19;100732.53;5051474;28;20090;-69
2024/02/19 03:51:22;;;;;;;2.53;0.95;;;;;;;-2.76;56.27;100743.00;5051012;28;20129;-66
2024/02/19 03:53:48;;;;;;;2.80;0.70;;;;;;;-2.79;56.65;100743.88;5051565;28;20116;-67
2024/02/19 03:56:13;;;;;;;1.33;0.60;;;;;;;-2.87;56.05;100743.09;5051281;28;20114;-68
2024/02/19 03:58:40;;;;;;;1.92;0.50;;;;;;;-2.84;55.90;100766.66;5050967;28;20361;-67
2024/02/19 04:01:05;;;;;;;0.32;0.32;;;;;;;-2.87;56.33;100758.81;5050453;28;20033;-65
2024/02/19 04:03:31;;;;;;;1.85;0.52;;;;;;;-2.89;56.41;100757.97;5051694;28;20028;-66
2024/02/19 04:05:56;;;;;;;2.00;0.55;;;;;;;-2.84;55.69;100769.28;5050626;28;20108;-66
2024/02/19 04:08:22;;;;;;;4.20;0.85;;;;;;;-2.96;55.76;100779.84;5050939;28;20033;-66
2024/02/19 04:10:47;;;;;;;1.63;0.57;;;;;;;-3.08;55.71;100781.72;5051131;28;20464;-66
2024/02/19 04:13:13;;;;;;;1.65;0.60;;;;;;;-3.12;56.20;100773.88;5050311;28;20037;-66
2024/02/19 04:15:38;;;;;;;1.80;0.60;;;;;;;-3.11;56.45;100775.63;5050873;28;20025;-67
2024/02/19 04:18:04;;;;;;;1.42;0.73;;;;;;;-3.45;55.83;100721.78;5051201;28;20044;-67
2024/02/19 04:20:30;;;;;;;1.38;0.57;;;;;;;-3.12;56.14;100780.00;5051162;28;20117;-66
2024/02/19 04:22:55;;;;;;;1.50;0.73;;;;;;;-3.15;56.42;100768.69;5050863;28;20120;-68
2024/02/19 04:25:21;;;;;;;2.05;0.93;;;;;;;-3.09;56.52;100785.22;5050659;27;20032;-71
2024/02/19 04:27:46;;;;;;;3.00;0.98;;;;;;;-3.14;56.33;100783.50;5050702;28;20057;-69
2024/02/19 04:30:12;;;;;;;1.27;0.70;;;;;;;-3.10;56.40;100780.88;5051239;28;20037;-69
2024/02/19 04:32:37;;;;;;;2.53;0.90;;;;;;;-3.10;56.30;100786.09;5050703;28;20362;-67
2024/02/19 04:35:03;;;;;;;1.67;0.80;;;;;;;-3.08;56.42;100781.72;5051025;28;20361;-65
2024/02/19 04:37:31;;;;;;;2.30;0.77;;;;;;;-3.11;56.94;100781.75;5049425;28;20032;-66
2024/02/19 04:39:56;;;;;;;3.15;1.00;;;;;;;-3.09;56.77;100793.09;5050643;28;20496;-66
2024/02/19 04:42:22;;;;;;;4.25;1.00;;;;;;;-3.06;56.87;100795.66;5049694;28;20127;-67
2024/02/19 04:44:47;;;;;;;1.55;0.85;;;;;;;-3.11;56.71;100770.38;5050304;28;20154;-66
2024/02/19 04:47:13;;;;;;;2.17;0.57;;;;;;;-3.01;56.74;100800.00;5050365;28;20025;-68
2024/02/19 04:49:39;;;;;;;0.70;0.70;;;;;;;-3.09;56.24;100797.44;5050776;28;20105;-67
2024/02/19 04:52:05;;;;;;;2.25;1.15;;;;;;;-3.15;56.45;100794.88;5049690;28;20045;-67
2024/02/19 04:54:31;;;;;;;3.33;0.90;;;;;;;-3.17;56.27;100795.75;5050178;28;20456;-67
2024/02/19 04:56:57;;;;;;;3.35;1.40;;;;;;;-3.16;56.62;100804.47;5032472;28;20052;-69
2024/02/19 04:59:22;;;;;;;3.03;1.30;;;;;;;-3.20;56.30;100797.53;5050576;28;20112;-72
2024/02/19 05:01:48;;;;;;;4.20;0.90;;;;;;;-3.15;56.66;100789.63;5050350;28;20040;-68
2024/02/19 05:04:14;;;;;;;2.50;0.90;;;;;;;-3.49;56.27;100741.03;5050193;28;20086;-69
2024/02/19 05:06:39;;;;;;;4.93;1.13;;;;;;;-3.46;56.39;100746.22;5049944;28;20037;-68
2024/02/19 05:09:05;;;;;;;2.15;1.13;;;;;;;-3.11;56.13;100792.22;5050436;28;20033;-69
2024/02/19 05:11:30;;;;;;;1.60;1.08;;;;;;;-3.40;55.90;100751.41;5049658;28;20380;-67
2024/02/19 05:13:56;;;;;;;3.08;1.10;;;;;;;-3.39;56.04;100760.16;5049055;28;20441;-67
2024/02/19 05:16:22;;;;;;;5.72;1.10;;;;;;;-3.07;56.24;100817.50;5049885;28;20033;-69
2024/02/19 05:18:47;;;;;;;2.65;1.33;;;;;;;-3.09;55.29;100815.78;5049580;28;20047;-67
2024/02/19 05:21:14;;;;;;;3.60;1.10;;;;;;;-3.17;55.85;100816.72;5049839;28;20124;-67
2024/02/19 05:23:39;;;;;;;1.90;1.10;;;;;;;-3.22;55.53;100813.28;5049953;28;20025;-65
2024/02/19 05:26:05;;;;;;;3.47;1.27;;;;;;;-3.22;55.52;100820.25;5032584;28;20021;-67
2024/02/19 05:28:34;;;;;;;4.20;1.20;;;;;;;-3.26;55.53;100810.69;5049528;28;20075;-70
2024/02/19 05:31:01;;;;;;;1.88;1.10;;;;;;;-3.62;56.23;100762.06;5049732;28;20356;-72
2024/02/19 05:33:28;;;;;;;2.78;1.25;;;;;;;-3.51;55.62;100796.00;5049896;28;20040;-73
2024/02/19 05:35:53;;;;;;;3.13;1.10;;;;;;;-3.46;56.48;100801.22;5049728;28;20124;-71
2024/02/19 05:38:19;;;;;;;2.47;1.20;;;;;;;-3.32;56.13;100822.06;5049868;28;20116;-71
2024/02/19 05:40:44;;;;;;;3.55;1.65;;;;;;;-3.26;56.04;100824.63;5049817;28;20028;-68
2024/02/19 05:43:10;;;;;;;2.72;1.38;;;;;;;-3.26;55.97;100806.28;5050010;28;20029;-61
2024/02/19 05:45:36;;;;;;;4.05;1.70;;;;;;;-3.14;56.22;100822.81;5050043;28;20025;-70
2024/02/19 05:48:01;;;;;;;5.82;2.15;;;;;;;-3.15;55.48;100824.53;5049595;28;20457;-73
2024/02/19 05:50:29;;;;;;;5.10;2.20;;;;;;;-3.06;55.82;100828.84;5049394;28;20058;-70
2024/02/19 05:52:55;;;;;;;2.90;1.55;;;;;;;-3.08;55.60;100822.75;5048507;28;20029;-67
2024/02/19 05:55:20;;;;;;;5.80;2.10;;;;;;;-2.96;55.84;100834.88;5049580;28;20045;-71
2024/02/19 05:57:46;;;;;;;5.45;2.70;;;;;;;-2.96;55.26;100838.38;5049663;28;20029;-69
2024/02/19 06:00:13;;;;;;;6.93;3.28;;;;;;;-3.50;56.09;100731.44;5049360;28;20041;-70
2024/02/19 06:02:41;;;;;;;7.38;3.33;;;;;;;-3.10;55.58;100791.34;5049908;28;20036;-73
2024/02/19 06:05:07;;;;;;;7.63;3.22;;;;;;;-2.79;55.21;100839.97;5049326;28;20033;-71
2024/02/19 06:07:33;;;;;;;7.57;3.28;;;;;;;-2.80;54.84;100833.88;5049332;28;20096;-74
2024/02/19 06:09:58;;;;;;;6.45;2.45;;;;;;;-2.84;54.70;100849.63;5048655;28;20033;-74
2024/02/19 06:12:24;;;;;;;4.18;1.85;;;;;;;-2.80;54.50;100849.59;5030727;28;20353;-73
2024/02/19 06:14:50;;;;;;;6.50;2.17;;;;;;;-2.78;54.16;100849.56;5028845;28;20103;-75
2024/02/19 06:17:16;;;;;;;5.72;1.92;;;;;;;-2.67;55.21;100849.47;5029297;28;20518;-72
2024/02/19 06:19:41;;;;;;;4.60;1.60;;;;;;;-2.57;54.45;100851.16;5029348;28;20484;-70
2024/02/19 06:22:07;;;;;;;2.72;1.38;;;;;;;-2.62;53.56;100842.47;5029194;28;20083;-72
2024/02/19 06:24:32;;;;;;;4.18;1.50;;;;;;;-2.56;53.45;100857.25;5031568;28;20334;-76
2024/02/19 06:26:58;;;;;;;3.50;1.98;;;;;;;-2.50;53.76;100858.06;5032771;28;20029;-74
2024/02/19 06:29:23;;;;;;;4.55;2.00;;;;;;;-2.59;52.75;100805.72;5032336;28;20025;-73
2024/02/19 06:31:52;;;;;;;8.10;2.42;;;;;;;-1.84;52.34;100865.22;5049829;28;20033;-72
2024/02/19 06:34:17;;;;;;;15.15;5.47;;;;;;;-1.73;51.33;100861.56;5051116;28;20121;-72
2024/02/19 06:36:43;;;;;;;20.67;4.53;;;;;;;-1.45;51.10;100857.69;5052632;28;20085;-60
2024/02/19 06:39:08;;;;;;;15.40;3.40;;;;;;;-0.99;49.42;100866.66;5052315;28;20037;-74
2024/02/19 06:41:34;;;;;;;11.40;3.28;;;;;;;-1.01;49.64;100861.41;5051927;28;20036;-73
2024/02/19 06:43:59;;;;;;;10.68;3.80;;;;;;;-1.08;49.48;100875.53;5052402;28;20342;-73
2024/02/19 06:46:25;;;;;;;11.30;4.78;;;;;;;-1.51;50.31;100823.63;5052677;28;20036;-73
2024/02/19 06:48:50;;;;;;;11.50;5.28;;;;;;;-1.62;50.50;100843.03;5051924;28;20517;-74
2024/02/19 06:51:18;;;;;;;13.23;5.97;;;;;;;-1.59;51.43;100879.75;5052266;28;20056;-74
2024/02/19 06:53:43;;;;;;;10.90;3.55;;;;;;;-1.47;50.86;100877.84;5051691;28;20037;-64
2024/02/19 06:56:09;;;;;;;10.43;4.13;;;;;;;-1.31;50.69;100874.13;5052351;28;20036;-72
2024/02/19 06:58:34;;;;;;;7.80;3.55;;;;;;;-1.05;50.42;100875.50;5052136;28;20403;-72
2024/02/19 07:01:04;;;;;;;7.82;3.58;;;;;;;-0.96;49.82;100873.63;5051733;28;20029;-74
2024/02/19 07:03:29;;;;;;;7.53;2.85;;;;;;;-0.92;48.95;100881.41;5051103;28;20449;-72
2024/02/19 07:05:55;;;;;;;4.25;2.20;;;;;;;-1.09;49.04;100879.06;5051544;28;20149;-72
2024/02/19 07:08:20;;;;;;;6.43;2.65;;;;;;;-1.19;49.63;100880.97;5051597;28;20112;-72
2024/02/19 07:10:46;;;;;;;6.80;2.70;;;;;;;-1.21;50.02;100884.50;5051332;28;20367;-69
2024/02/19 07:13:11;;;;;;;9.45;3.15;;;;;;;-1.11;50.59;100878.22;5051569;28;20033;-72
2024/02/19 07:15:37;;;;;;;4.40;2.33;;;;;;;-0.83;49.94;100883.03;5051791;28;20041;-74
2024/02/19 07:18:02;;;;;;;9.38;2.83;;;;;;;-0.96;48.95;100873.63;5050985;28;20440;-73
2024/02/19 07:20:28;;;;;;;8.48;3.28;;;;;;;-1.01;49.68;100884.22;5050859;28;20463;-73
2024/02/19 07:22:53;;;;;;;12.60;3.53;;;;;;;-1.35;49.17;100835.66;5051736;28;20040;-71
2024/02/19 07:25:19;;;;;;;6.68;2.95;;;;;;;-1.07;49.73;100886.94;5050966;28;20041;-74
2024/02/19 07:27:44;;;;;;;9.52;3.10;;;;;;;-1.11;49.67;100895.72;5051953;28;20025;-72
2024/02/19 07:30:12;;;;;;;6.82;2.78;;;;;;;-1.10;49.31;100876.44;5051300;28;20086;-70
2024/02/19 07:32:37;;;;;;;6.22;2.50;;;;;;;-0.93;48.99;100890.19;5051926;28;20032;-71
2024/02/19 07:35:03;;;;;;;7.47;3.40;;;;;;;-0.55;48.76;100879.94;5050382;28;20165;-70
2024/02/19 07:37:29;;;;;;;8.82;2.83;;;;;;;-0.29;48.09;100883.84;5051110;28;20029;-72
2024/02/19 07:39:55;;;;;;;5.85;2.28;;;;;;;-0.09;47.34;100888.78;5050883;28;20033;-73
2024/02/19 07:42:20;;;;;;;5.32;2.20;;;;;;;-0.07;46.96;100888.72;5051105;28;20161;-75
2024/02/19 07:44:46;;;;;;;6.10;2.90;;;;;;;-0.36;46.76;100848.03;5051610;28;20035;-73
2024/02/19 07:47:12;;;;;;;12.63;4.95;;;;;;;-0.28;47.15;100893.50;5051395;28;20086;-72
2024/02/19 07:49:37;;;;;;;9.05;3.97;;;;;;;-0.31;47.61;100899.69;5039054;28;20056;-72
2024/02/19 07:52:03;;;;;;;5.47;2.70;;;;;;;-0.24;47.29;100899.56;5031366;28;20119;-71
2024/02/19 07:54:29;;;;;;;6.32;2.47;;;;;;;0.06;46.81;100907.78;5036941;28;20044;-72
2024/02/19 07:56:54;;;;;;;10.07;3.13;;;;;;;0.85;45.16;100861.31;5051099;28;20529;-75
2024/02/19 07:59:20;;;;;;;9.75;3.28;;;;;;;1.56;43.81;100882.41;5051376;28;20491;-72
2024/02/19 08:01:45;;;;;;;13.48;5.47;;;;;;;1.57;43.38;100897.38;5051169;28;20029;-73
2024/02/19 08:04:11;;;;;;;9.52;6.20;;;;;;;1.44;43.91;100907.34;5051364;28;20149;-73
2024/02/19 08:06:37;;;;;;;6.88;3.60;;;;;;;1.38;43.86;100900.47;5044892;28;20086;-70
2024/02/19 08:09:05;;;;;;;7.20;3.95;;;;;;;1.16;44.27;100907.19;5038056;28;20029;-67
2024/02/19 08:11:32;;;;;;;6.10;3.35;;;;;;;1.04;45.63;100903.06;5043476;28;20032;-66
2024/02/19 08:13:57;;;;;;;12.38;4.22;;;;;;;0.97;46.13;100903.22;5049278;28;20109;-66
2024/02/19 08:16:24;;;;;;;7.60;2.97;;;;;;;0.94;46.00;100908.53;5048977;28;20166;-71
2024/02/19 08:18:49;;;;;;;10.48;3.90;;;;;;;0.95;45.74;100918.19;5050021;28;20056;-67
2024/02/19 08:21:15;;;;;;;24.17;9.70;;;;;;;0.55;45.69;100869.88;5049559;28;20460;-64
2024/02/19 08:23:40;;;;;;;15.90;7.40;;;;;;;0.63;46.31;100914.53;5049972;28;20033;-68
2024/02/19 08:26:06;;;;;;;11.25;5.10;;;;;;;0.46;46.79;100916.63;5049526;28;20099;-66
2024/02/19 08:28:31;;;;;;;8.73;4.63;;;;;;;0.38;47.21;100925.56;5049972;28;20368;-66
2024/02/19 08:30:57;;;;;;;6.20;2.95;;;;;;;0.27;47.18;100903.88;5049343;28;20108;-64
2024/02/19 08:33:23;;;;;;;5.45;2.88;;;;;;;0.22;47.80;100922.38;5049315;28;20358;-65
2024/02/19 08:35:50;;;;;;;6.28;2.65;;;;;;;0.13;47.31;100928.69;5049566;27;20032;-60
2024/02/19 08:38:15;;;;;;;2.85;2.25;;;;;;;0.25;47.87;100929.38;5046982;27;20048;-64
2024/02/19 08:40:41;;;;;;;5.47;2.50;;;;;;;0.11;47.56;100930.50;5049094;28;20033;-65
2024/02/19 08:43:10;;;;;;;8.07;3.75;;;;;;;0.22;47.84;100918.88;5047723;27;20064;-70
2024/02/19 08:45:36;;;;;;;4.88;3.10;;;;;;;0.27;47.28;100933.69;5049193;27;20079;-70
2024/02/19 08:48:01;;;;;;;7.57;3.10;;;;;;;0.25;47.66;100934.66;5047753;27;20032;-68
2024/02/19 08:50:27;;;;;;;14.07;2.95;;;;;;;0.20;48.21;100936.47;5048400;28;20029;-72
2024/02/19 08:52:53;;;;;;;5.68;2.58;;;;;;;0.07;47.08;100934.09;5047724;28;20037;-65
2024/02/19 08:55:18;;;;;;;5.47;2.38;;;;;;;0.16;47.85;100937.44;5044280;28;20040;-66
2024/02/19 08:57:44;;;;;;;4.50;2.67;;;;;;;0.21;48.20;100932.94;5048119;28;20053;-72
2024/02/19 09:00:11;;;;;;;4.68;2.67;;;;;;;0.35;47.30;100930.91;5049373;28;20093;-70
2024/02/19 09:02:38;;;;;;;3.00;2.30;;;;;;;0.37;48.30;100936.16;5048964;27;20040;-71
2024/02/19 09:05:04;;;;;;;10.88;5.85;;;;;;;0.43;48.27;100936.88;5048446;28;20042;-68
2024/02/19 09:07:30;;;;;;;11.65;5.22;;;;;;;0.45;47.67;100925.44;5046445;28;20026;-62
2024/02/19 09:09:55;;;;;;;7.95;3.08;;;;;;;0.54;47.65;100936.66;5042335;28;20046;-70
2024/02/19 09:12:23;;;;;;;7.78;2.85;;;;;;;0.64;47.33;100928.56;5030442;28;20335;-71
2024/02/19 09:14:49;;;;;;;5.97;2.95;;;;;;;0.73;46.62;100948.59;5028162;28;20036;-64
2024/02/19 09:17:15;;;;;;;6.78;2.97;;;;;;;0.54;47.30;100909.47;5028909;28;20025;-72
2024/02/19 09:19:40;;;;;;;8.55;4.05;;;;;;;0.59;46.96;100938.31;5028827;28;20048;-73
2024/02/19 09:22:07;;;;;;;6.22;3.13;;;;;;;0.54;46.67;100936.66;5028545;28;20108;-73
2024/02/19 09:24:33;;;;;;;7.65;3.55;;;;;;;0.47;46.61;100942.09;5044007;28;20089;-64
2024/02/19 09:26:58;;;;;;;4.05;3.08;;;;;;;0.31;47.05;100949.44;5048657;28;20025;-68
2024/02/19 09:29:24;;;;;;;5.35;3.30;;;;;;;0.40;47.97;100936.94;5048182;28;20493;-67
2024/02/19 09:31:50;;;;;;;8.82;3.20;;;;;;;0.57;47.31;100949.78;5038267;27;20033;-66
2024/02/19 09:34:15;;;;;;;10.60;4.20;;;;;;;0.71;47.84;100946.00;5049415;28;20081;-66
2024/02/19 09:36:45;;;;;;;6.70;3.30;;;;;;;0.84;46.83;100923.75;5048826;28;20051;-67
2024/02/19 09:39:12;;;;;;;8.77;4.30;;;;;;;1.05;45.76;100947.84;5027048;28;20097;-67
2024/02/19 09:41:38;;;;;;;8.82;3.83;;;;;;;0.95;45.99;100897.09;5035594;28;20033;-67
2024/02/19 09:44:04;;;;;;;4.82;3.30;;;;;;;1.49;46.03;100954.75;5037505;28;20025;-68
2024/02/19 09:46:30;;;;;;;7.13;3.25;;;;;;;1.51;44.67;100952.94;5038605;28;20099;-70
2024/02/19 09:49:00;;;;;;;6.30;2.80;;;;;;;1.53;45.50;100948.50;5039305;28;20108;-69
2024/02/19 09:51:28;;;;;;;6.45;3.17;;;;;;;1.54;45.50;100951.09;5037106;28;20116;-67
2024/02/19 09:53:55;;;;;;;5.80;3.20;;;;;;;1.50;44.82;100960.00;5038032;28;20101;-71
2024/02/19 09:56:22;;;;;;;4.55;3.17;;;;;;;1.24;45.53;100950.97;5045184;28;20033;-73
2024/02/19 09:58:49;;;;;;;6.63;3.75;;;;;;;1.18;45.83;100964.25;5046362;28;20056;-71
2024/02/19 10:01:16;;;;;;;5.75;3.38;;;;;;;1.22;45.89;100955.41;5047370;28;20576;-68
2024/02/19 10:03:41;;;;;;;7.82;3.30;;;;;;;1.24;45.83;100953.59;5042194;28;20030;-70
2024/02/19 10:06:07;;;;;;;7.82;3.30;;;;;;;1.26;46.00;100959.69;5027409;28;20085;-70
2024/02/19 10:08:33;;;;;;;8.55;3.72;;;;;;;1.38;45.38;100955.03;5027025;28;20116;-73
2024/02/19 10:11:06;;;;;;;6.90;3.30;;;;;;;1.13;44.78;100903.72;5027457;28;20505;-70
2024/02/19 10:13:34;;;;;;;5.97;3.42;;;;;;;1.46;44.24;100953.06;5035379;28;20108;-74
2024/02/19 10:16:00;;;;;;;4.45;3.03;;;;;;;1.33;44.35;100951.63;5049226;28;20097;-73
2024/02/19 10:18:25;;;;;;;8.52;4.20;;;;;;;1.22;44.62;100949.25;5049168;28;20115;-72
2024/02/19 10:20:51;;;;;;;8.27;4.15;;;;;;;1.24;44.53;100950.06;5049138;28;20174;-72
2024/02/19 10:23:19;;;;;;;6.68;3.92;;;;;;;1.08;45.25;100957.47;5048430;28;20394;-71
2024/02/19 10:25:45;;;;;;;6.63;3.40;;;;;;;1.00;44.98;100947.97;5048973;28;20025;-73
2024/02/19 10:28:11;;;;;;;9.30;3.60;;;;;;;0.89;45.78;100952.63;5048173;28;20033;-66
2024/02/19 10:30:37;;;;;;;5.30;3.65;;;;;;;0.91;45.76;100950.81;5036664;28;20682;-68
2024/02/19 10:33:02;;;;;;;5.00;3.65;;;;;;;1.03;45.91;100940.91;5037674;28;20041;-66
2024/02/19 10:35:28;;;;;;;6.82;3.70;;;;;;;1.13;45.20;100937.13;5038217;28;20053;-70
2024/02/19 10:37:58;;;;;;;6.57;3.45;;;;;;;1.12;45.96;100940.69;5036774;28;20033;-70
2024/02/19 10:40:24;;;;;;;6.63;3.30;;;;;;;1.00;46.24;100939.19;5037242;28;20025;-71
2024/02/19 10:42:50;;;;;;;6.30;3.47;;;;;;;0.98;46.00;100949.78;5030723;28;20040;-70
2024/02/19 10:45:26;;;;;;;7.60;3.67;;;;;;;1.00;46.27;100940.06;5029068;28;20452;-69
2024/02/19 10:47:53;;;;;;;4.90;3.72;;;;;;;1.05;45.90;100942.59;5028704;28;20033;-69
2024/02/19 10:50:20;;;;;;;4.75;3.28;;;;;;;1.07;46.27;100939.94;5041730;28;20517;-65
2024/02/19 10:52:46;;;;;;;5.15;3.22;;;;;;;1.13;45.99;100947.69;5047758;28;20056;-72
2024/02/19 10:55:12;;;;;;;6.38;3.50;;;;;;;1.07;45.43;100942.56;5047791;28;20029;-70
2024/02/19 10:57:52;;;;;;;6.47;3.70;;;;;;;1.09;45.81;100935.47;5048223;28;20048;-72
2024/02/19 11:00:25;;;;;;;12.00;3.85;;;;;;;0.66;46.70;100884.59;5048136;28;20045;-72
2024/02/19 11:03:02;;;;;;;7.55;3.88;;;;;;;1.03;47.17;100944.38;5048097;28;20043;-72
2024/02/19 11:05:27;;;;;;;5.80;4.05;;;;;;;0.85;46.84;100921.94;5047260;28;20036;-71
2024/02/19 11:07:53;;;;;;;8.32;4.10;;;;;;;0.83;46.16;100937.78;5044800;28;20033;-69
2024/02/19 11:10:18;;;;;;;4.68;3.58;;;;;;;0.85;46.05;100930.75;5037112;28;20049;-64
2024/02/19 11:12:44;;;;;;;7.78;3.78;;;;;;;0.65;45.96;100931.16;5031181;28;20029;-65
2024/02/19 11:15:16;;;;;;;8.63;3.90;;;;;;;0.59;46.23;100939.22;5039423;28;20039;-69
2024/02/19 11:17:43;;;;;;;7.45;4.15;;;;;;;0.34;47.02;100928.28;5048025;28;20095;-69
2024/02/19 11:20:09;;;;;;;7.40;3.85;;;;;;;0.37;47.40;100937.03;5041949;28;20503;-69